Heartwell, Vermont
Current Conditions -  °F | °C
As of 2:55 AM on Thursday 23 Oct 2014 (Local Time) from KRUT Reporting Station
Overcast Overcast  
Wind Chill: 42°   Ceiling: 2200
Heat Index: 46°   Visibility: 10mi
Dew Point: 41°   Wind: 9mph
Humidity: 81%   Direction: 330°NNW
Pressure: 29.9"   Gusts: NA
Location:  43.6369°N, 72.9375°W
Report Text: KRUT 230655Z 33008KT 10SM BKN022 OVC034 08/05 A2990 RMK AO1
Loading
Personal Weather Stations






























Interactive Weather Map
Tropical Storm Tracking
New forecast layout! Learn more

10-Day Weather Forecast

Advertisements
Track Severe Weather on mobile